createdAt,value
2023-03-12T00:01:57.084Z,45741.97
2023-03-12T00:04:23.582Z,45720.00
2023-03-12T00:06:49.999Z,45722.00
2023-03-12T00:09:16.638Z,45722.00
2023-03-12T00:11:43.461Z,45741.97
2023-03-12T00:14:09.914Z,45718.00
2023-03-12T00:16:36.351Z,45722.00
2023-03-12T00:19:03.067Z,45735.97
2023-03-12T00:21:29.446Z,45741.97
2023-03-12T00:23:56.270Z,45714.00
2023-03-12T00:26:22.728Z,45727.97
2023-03-12T00:28:50.447Z,45706.00
2023-03-12T00:31:20.328Z,45710.00
2023-03-12T00:33:49.882Z,45718.00
2023-03-12T00:36:17.964Z,45725.97
2023-03-12T00:38:44.469Z,45708.00
2023-03-12T00:41:10.973Z,45733.97
2023-03-12T00:43:37.496Z,45706.00
2023-03-12T00:46:04.304Z,45718.00
2023-03-12T00:48:31.055Z,45714.00
2023-03-12T00:50:57.542Z,45722.00
2023-03-12T00:53:24.055Z,45735.97
2023-03-12T00:55:50.507Z,45733.97
2023-03-12T00:58:17.134Z,45722.00
2023-03-12T01:00:43.566Z,45724.00
2023-03-12T01:03:09.962Z,45714.00
2023-03-12T01:05:37.816Z,45729.97
2023-03-12T01:08:08.004Z,45725.97
2023-03-12T01:10:35.113Z,45722.00
2023-03-12T01:13:01.681Z,45718.00
2023-03-12T01:15:29.255Z,45714.00
2023-03-12T01:17:55.626Z,45729.97
2023-03-12T01:20:23.022Z,45706.00
2023-03-12T01:22:49.530Z,45725.97
2023-03-12T01:25:16.094Z,45716.00
2023-03-12T01:27:42.480Z,45718.00
2023-03-12T01:30:10.050Z,45747.97
2023-03-12T01:32:36.607Z,45714.00
2023-03-12T01:35:03.240Z,45737.97
2023-03-12T01:37:29.615Z,45722.00
2023-03-12T01:39:56.231Z,45710.00
2023-03-12T01:42:22.646Z,45722.00
2023-03-12T01:44:56.327Z,45710.00
2023-03-12T01:47:24.402Z,45729.97
2023-03-12T01:49:54.412Z,45729.97
2023-03-12T01:52:33.052Z,45714.00
2023-03-12T01:55:09.530Z,45718.00
2023-03-12T01:57:59.157Z,45698.00
2023-03-12T02:00:27.339Z,45714.00
2023-03-12T02:03:00.421Z,45710.00
2023-03-12T02:05:43.315Z,45751.97
2023-03-12T02:08:14.462Z,45702.00
2023-03-12T02:10:40.962Z,45724.00
2023-03-12T02:13:07.783Z,45733.97
2023-03-12T02:15:36.163Z,45716.00
2023-03-12T02:18:13.645Z,45722.00
2023-03-12T02:20:49.490Z,45706.00
2023-03-12T02:23:30.165Z,45722.00
2023-03-12T02:25:58.495Z,45704.00
2023-03-12T02:28:27.992Z,45729.97
2023-03-12T02:30:59.857Z,45714.00
2023-03-12T02:33:26.483Z,45704.00
2023-03-12T02:35:54.161Z,45710.00
2023-03-12T02:38:34.065Z,45725.97
2023-03-12T02:41:05.453Z,45710.00
2023-03-12T02:43:32.352Z,45725.97
2023-03-12T02:45:58.834Z,45729.97
2023-03-12T02:48:25.290Z,45739.97
2023-03-12T02:50:52.389Z,45714.00
2023-03-12T02:53:18.783Z,45724.00
2023-03-12T02:55:45.286Z,45708.00
2023-03-12T02:58:11.708Z,45720.00
2023-03-12T03:00:38.134Z,45735.97
2023-03-12T03:03:04.666Z,45710.00
2023-03-12T03:05:31.558Z,45722.00
2023-03-12T03:07:57.951Z,45729.97
2023-03-12T03:10:24.552Z,45727.97
2023-03-12T03:12:51.426Z,45712.00
2023-03-12T03:15:17.957Z,45702.00
2023-03-12T03:17:44.507Z,45722.00
2023-03-12T03:20:11.932Z,45725.97
2023-03-12T03:22:39.327Z,45714.00
2023-03-12T03:25:07.432Z,45684.00
2023-03-12T03:27:34.169Z,45718.00
2023-03-12T03:30:00.805Z,45727.97
2023-03-12T03:32:27.769Z,45725.97
2023-03-12T03:34:54.277Z,45704.00
2023-03-12T03:37:20.680Z,45716.00
2023-03-12T03:39:47.203Z,45714.00
2023-03-12T03:42:13.740Z,45720.00
2023-03-12T03:44:40.993Z,45720.00
2023-03-12T03:47:07.494Z,45725.97
2023-03-12T03:49:33.969Z,45694.00
2023-03-12T03:52:00.577Z,45731.97
2023-03-12T03:54:33.985Z,45702.00
2023-03-12T03:57:01.037Z,45714.00
2023-03-12T03:59:28.345Z,45722.00
2023-03-12T04:01:55.798Z,45714.00
2023-03-12T04:04:22.483Z,45706.00
2023-03-12T04:06:49.419Z,45714.00
2023-03-12T04:09:16.202Z,45714.00
2023-03-12T04:11:42.715Z,45700.00
2023-03-12T04:14:11.961Z,45720.00
2023-03-12T04:16:45.881Z,45714.00
2023-03-12T04:19:12.343Z,45733.97
2023-03-12T04:21:39.635Z,45737.97
2023-03-12T04:24:08.195Z,45714.00
2023-03-12T04:26:35.150Z,45714.00
2023-03-12T04:29:03.073Z,45710.00
2023-03-12T04:31:29.824Z,45710.00
2023-03-12T04:33:56.282Z,45694.00
2023-03-12T04:36:24.658Z,45714.00
2023-03-12T04:38:52.533Z,45733.97
2023-03-12T04:41:23.569Z,45724.00
2023-03-12T04:43:55.110Z,45694.00
2023-03-12T04:46:22.019Z,45702.00
2023-03-12T04:48:48.610Z,45706.00
2023-03-12T04:51:15.619Z,45712.00
2023-03-12T04:53:42.394Z,45690.00
2023-03-12T04:56:11.029Z,45706.00
2023-03-12T04:58:38.687Z,45696.00
2023-03-12T05:01:05.810Z,45714.00
2023-03-12T05:03:32.662Z,45702.00
2023-03-12T05:05:59.487Z,45698.00
2023-03-12T05:08:26.139Z,45712.00
2023-03-12T05:10:52.603Z,45696.00
2023-03-12T05:13:21.655Z,45702.00
2023-03-12T05:15:51.552Z,45700.00
2023-03-12T05:18:21.236Z,45722.00
2023-03-12T05:20:47.861Z,45706.00
2023-03-12T05:23:14.422Z,45737.97
2023-03-12T05:25:41.385Z,45714.00
2023-03-12T05:28:08.319Z,45702.00
2023-03-12T05:30:36.337Z,45733.97
2023-03-12T05:33:02.864Z,45700.00
2023-03-12T05:35:30.285Z,45714.00
2023-03-12T05:37:56.928Z,45710.00
2023-03-12T05:40:23.281Z,45708.00
2023-03-12T05:42:49.843Z,45722.00
2023-03-12T05:45:19.544Z,45708.00
2023-03-12T05:47:50.229Z,45682.00
2023-03-12T05:50:17.512Z,45718.00
2023-03-12T05:52:44.060Z,45698.00
2023-03-12T05:55:11.376Z,45725.97
2023-03-12T05:57:37.867Z,45706.00
2023-03-12T06:00:06.098Z,45704.00
2023-03-12T06:02:39.999Z,45694.00
2023-03-12T06:05:07.390Z,45702.00
2023-03-12T06:07:34.178Z,45710.00
2023-03-12T06:10:00.769Z,45729.97
2023-03-12T06:12:27.430Z,45722.00
2023-03-12T06:14:53.906Z,45722.00
2023-03-12T06:17:21.419Z,45712.00
2023-03-12T06:19:51.739Z,45710.00
2023-03-12T06:22:19.539Z,45716.00
2023-03-12T06:24:47.270Z,45698.00
2023-03-12T06:27:15.746Z,45702.00
2023-03-12T06:29:43.027Z,45706.00
2023-03-12T06:32:09.466Z,45702.00
2023-03-12T06:34:35.854Z,45714.00
2023-03-12T06:37:02.410Z,45704.00
2023-03-12T06:39:29.851Z,45706.00
2023-03-12T06:41:56.498Z,45696.00
2023-03-12T06:44:22.985Z,45710.00
2023-03-12T06:46:49.405Z,45708.00
2023-03-12T06:49:15.839Z,45704.00
2023-03-12T06:51:42.280Z,45706.00
2023-03-12T06:54:08.889Z,45714.00
2023-03-12T06:56:35.342Z,45700.00
2023-03-12T06:59:01.742Z,45702.00
2023-03-12T07:01:28.211Z,45725.97
2023-03-12T07:03:54.666Z,45690.00
2023-03-12T07:06:22.439Z,45710.00
2023-03-12T07:08:48.882Z,45702.00
2023-03-12T07:11:15.878Z,45706.00
2023-03-12T07:13:42.328Z,45702.00
2023-03-12T07:16:09.179Z,45714.00
2023-03-12T07:18:35.591Z,45706.00
2023-03-12T07:21:02.107Z,45700.00
2023-03-12T07:23:28.500Z,45714.00
2023-03-12T07:25:55.073Z,45720.00
2023-03-12T07:28:22.274Z,45686.00
2023-03-12T07:30:50.569Z,45706.00
2023-03-12T07:33:20.163Z,45725.97
2023-03-12T07:35:50.982Z,45700.00
2023-03-12T07:38:18.247Z,45714.00
2023-03-12T07:40:44.916Z,45706.00
2023-03-12T07:43:12.684Z,45708.00
2023-03-12T07:45:40.720Z,45698.00
2023-03-12T07:48:07.631Z,45710.00
2023-03-12T07:50:35.043Z,45686.00
2023-03-12T07:53:01.798Z,45678.03
2023-03-12T07:55:28.636Z,45712.00
2023-03-12T07:57:58.284Z,45710.00
2023-03-12T08:00:25.789Z,45694.00
2023-03-12T08:02:52.781Z,45690.00
2023-03-12T08:05:19.833Z,45702.00
2023-03-12T08:07:46.644Z,45702.00
2023-03-12T08:10:13.276Z,45710.00
2023-03-12T08:12:39.863Z,45698.00
2023-03-12T08:15:08.787Z,45698.00
2023-03-12T08:17:35.286Z,45690.00
2023-03-12T08:20:01.764Z,45682.00
2023-03-12T08:22:28.131Z,45702.00
2023-03-12T08:24:54.487Z,45676.03
2023-03-12T08:27:21.105Z,45700.00
2023-03-12T08:29:47.529Z,45684.00
2023-03-12T08:32:14.164Z,45698.00
2023-03-12T08:34:40.801Z,45674.03
2023-03-12T08:37:07.508Z,45698.00
2023-03-12T08:39:34.144Z,45682.00
2023-03-12T08:42:00.922Z,45708.00
2023-03-12T08:44:27.486Z,45710.00
2023-03-12T08:46:54.442Z,45690.00
2023-03-12T08:49:21.475Z,45708.00
2023-03-12T08:51:48.427Z,45690.00
2023-03-12T08:54:15.136Z,45668.03
2023-03-12T08:56:44.444Z,45664.03
2023-03-12T08:59:12.406Z,45694.00
2023-03-12T09:01:43.004Z,45694.00
2023-03-12T09:04:10.532Z,45694.00
2023-03-12T09:06:38.309Z,45688.00
2023-03-12T09:09:05.557Z,45702.00
2023-03-12T09:11:33.251Z,45656.03
2023-03-12T09:16:47.509Z,45702.00
2023-03-12T09:19:14.492Z,45686.00
2023-03-12T09:21:41.100Z,45682.00
2023-03-12T09:24:08.167Z,45696.00
2023-03-12T09:26:34.606Z,45690.00
2023-03-12T09:29:00.964Z,45694.00
2023-03-12T09:31:27.824Z,45706.00
2023-03-12T09:33:54.286Z,45702.00
2023-03-12T09:36:20.698Z,45698.00
2023-03-12T09:38:47.102Z,45688.00
2023-03-12T09:41:28.851Z,45694.00
2023-03-12T09:44:10.823Z,45682.00
2023-03-12T09:46:43.161Z,45690.00
2023-03-12T09:49:32.276Z,45706.00
2023-03-12T09:52:01.985Z,45698.00
2023-03-12T09:54:38.095Z,45698.00
2023-03-12T09:57:13.362Z,45714.00
2023-03-12T09:59:39.817Z,45714.00
2023-03-12T10:02:27.529Z,45706.00
2023-03-12T10:05:00.939Z,45718.00
2023-03-12T10:07:32.275Z,45725.97
2023-03-12T10:10:36.222Z,45725.97
2023-03-12T10:13:10.107Z,45694.00
2023-03-12T10:15:57.369Z,45710.00
2023-03-12T10:18:43.004Z,45710.00
2023-03-12T10:21:35.342Z,45702.00
2023-03-12T10:24:16.516Z,45696.00
2023-03-12T10:26:49.039Z,45718.00
2023-03-12T10:29:24.537Z,45700.00
2023-03-12T10:31:56.979Z,45700.00
2023-03-12T10:34:40.191Z,45702.00
2023-03-12T10:37:14.300Z,45704.00
2023-03-12T10:39:40.893Z,45708.00
2023-03-12T10:42:28.927Z,45698.00
2023-03-12T10:45:19.356Z,45706.00
2023-03-12T10:47:52.009Z,45698.00
2023-03-12T10:50:30.860Z,45694.00
2023-03-12T10:53:34.550Z,45694.00
2023-03-12T10:56:05.436Z,45718.00
2023-03-12T10:58:35.084Z,45688.00
2023-03-12T11:01:03.914Z,45702.00
2023-03-12T11:03:30.358Z,45722.00
2023-03-12T11:06:00.895Z,45704.00
2023-03-12T11:08:29.439Z,45710.00
2023-03-12T11:10:58.178Z,45706.00
2023-03-12T11:13:26.800Z,45708.00
2023-03-12T11:15:54.875Z,45708.00
2023-03-12T11:18:25.877Z,45720.00
2023-03-12T11:21:11.376Z,45698.00
2023-03-12T11:23:43.050Z,45708.00
2023-03-12T11:26:22.076Z,45694.00
2023-03-12T11:28:56.159Z,45678.03
2023-03-12T11:31:30.995Z,45690.00
2023-03-12T11:34:03.532Z,45698.00
2023-03-12T11:36:56.351Z,45686.00
2023-03-12T11:39:49.043Z,45702.00
2023-03-12T11:42:24.076Z,45690.00
2023-03-12T11:45:03.800Z,45672.03
2023-03-12T11:47:48.251Z,45686.00
2023-03-12T11:50:39.912Z,45690.00
2023-03-12T11:53:21.437Z,45684.00
2023-03-12T11:56:25.455Z,45678.03
2023-03-12T11:59:05.372Z,45698.00
2023-03-12T12:02:04.482Z,45678.03
2023-03-12T12:04:45.954Z,45668.03
2023-03-12T12:07:33.611Z,45684.00
2023-03-12T12:10:23.326Z,45678.03
2023-03-12T12:13:04.413Z,45692.00
2023-03-12T12:15:45.841Z,45672.03
2023-03-12T12:18:36.021Z,45576.09
2023-03-12T12:21:24.487Z,45566.09
2023-03-12T12:23:59.031Z,45570.09
2023-03-12T12:26:42.455Z,45564.09
2023-03-12T12:29:27.689Z,45558.09
2023-03-12T12:31:59.021Z,45554.09
2023-03-12T12:34:58.433Z,42873.19
2023-03-12T12:37:38.900Z,42881.19
2023-03-12T12:40:21.732Z,42873.19
2023-03-12T12:42:55.462Z,42897.16
2023-03-12T12:45:24.957Z,42889.16
2023-03-12T12:48:03.991Z,42913.13
2023-03-12T12:50:37.086Z,42911.13
2023-03-12T12:53:22.973Z,42927.09
2023-03-12T12:56:19.749Z,42941.09
2023-03-12T12:59:24.994Z,42953.06
2023-03-12T13:01:54.839Z,42941.09
2023-03-12T13:04:48.097Z,42971.03
2023-03-12T13:07:20.789Z,42973.03
2023-03-12T13:09:58.589Z,42977.03
2023-03-12T13:12:24.903Z,42985.03
2023-03-12T13:14:54.641Z,45538.13
2023-03-12T13:17:33.741Z,45526.13
2023-03-12T13:20:11.934Z,45518.13
2023-03-12T13:23:17.352Z,45498.16
2023-03-12T13:26:06.284Z,45494.16
2023-03-12T13:28:36.883Z,45514.13
2023-03-12T13:31:28.178Z,45514.13
2023-03-12T13:33:59.475Z,45488.16
2023-03-12T13:36:29.056Z,45504.16
2023-03-12T13:38:57.793Z,45486.16
2023-03-12T13:41:54.820Z,45482.16
2023-03-12T13:44:27.321Z,45486.16
2023-03-12T13:47:03.049Z,45486.16
2023-03-12T13:49:45.197Z,45484.16
2023-03-12T13:52:26.188Z,45482.16
2023-03-12T13:55:13.659Z,45492.16
2023-03-12T13:57:49.772Z,45482.16
2023-03-12T14:00:18.367Z,45490.16
2023-03-12T14:03:00.866Z,45506.16
2023-03-12T14:05:28.938Z,45474.16
2023-03-12T14:08:15.110Z,45486.16
2023-03-12T14:11:11.407Z,45476.16
2023-03-12T14:13:43.582Z,45478.16
2023-03-12T14:16:17.184Z,45478.16
2023-03-12T14:18:44.986Z,45470.19
2023-03-12T14:21:16.374Z,45478.16
2023-03-12T14:23:58.015Z,45486.16
2023-03-12T14:26:29.278Z,45482.16
2023-03-12T14:29:02.503Z,45474.16
2023-03-12T14:31:31.394Z,45478.16
2023-03-12T14:34:08.755Z,45478.16
2023-03-12T14:36:45.312Z,45470.19
2023-03-12T14:39:39.270Z,45482.16
2023-03-12T14:42:07.882Z,45466.19
2023-03-12T14:44:36.968Z,45478.16
2023-03-12T14:47:11.086Z,45470.19
2023-03-12T14:49:43.565Z,45472.16
2023-03-12T14:52:20.279Z,45480.16
2023-03-12T14:55:07.530Z,45476.16
2023-03-12T14:57:35.003Z,45484.16
2023-03-12T15:00:01.918Z,45474.16
2023-03-12T15:02:31.073Z,45470.19
2023-03-12T15:05:00.001Z,45456.19
2023-03-12T15:07:34.398Z,45462.19
2023-03-12T15:10:06.112Z,45466.19
2023-03-12T15:12:38.024Z,45476.16
2023-03-12T15:15:10.912Z,45458.19
2023-03-12T15:17:37.601Z,45482.16
2023-03-12T15:20:09.816Z,45486.16
2023-03-12T15:22:37.167Z,45472.16
2023-03-12T15:25:25.829Z,45482.16
2023-03-12T15:28:25.141Z,45460.19
2023-03-12T15:31:16.533Z,45502.16
2023-03-12T15:33:44.438Z,45488.16
2023-03-12T15:36:14.302Z,45482.16
2023-03-12T15:39:05.939Z,45482.16
2023-03-12T15:41:32.306Z,45486.16
2023-03-12T15:43:59.583Z,45474.16
2023-03-12T15:46:27.250Z,45478.16
2023-03-12T15:48:59.331Z,45482.16
2023-03-12T15:51:35.081Z,45470.19
2023-03-12T15:54:24.196Z,45478.16
2023-03-12T15:56:50.658Z,45480.16
2023-03-12T15:59:16.988Z,45482.16
2023-03-12T16:01:47.509Z,45470.19
2023-03-12T16:04:13.948Z,45470.19
2023-03-12T16:06:43.833Z,45490.16
2023-03-12T16:09:16.876Z,45482.16
2023-03-12T16:11:43.795Z,45476.16
2023-03-12T16:14:24.539Z,45480.16
2023-03-12T16:16:51.477Z,45466.19
2023-03-12T16:19:20.771Z,45466.19
2023-03-12T16:21:48.385Z,45488.16
2023-03-12T16:24:16.442Z,45474.16
2023-03-12T16:26:50.579Z,45490.16
2023-03-12T16:29:19.180Z,45484.16
2023-03-12T16:31:51.520Z,45462.19
2023-03-12T16:34:17.954Z,45466.19
2023-03-12T16:36:44.360Z,45468.19
2023-03-12T16:39:10.726Z,45494.16
2023-03-12T16:41:37.665Z,45482.16
2023-03-12T16:44:06.860Z,45494.16
2023-03-12T16:46:34.957Z,45494.16
2023-03-12T16:49:01.785Z,45478.16
2023-03-12T16:51:30.832Z,45482.16
2023-03-12T16:54:09.708Z,45476.16
2023-03-12T16:56:38.559Z,45486.16
2023-03-12T16:59:10.958Z,45472.16
2023-03-12T17:01:37.670Z,45476.16
2023-03-12T17:04:04.890Z,45474.16
2023-03-12T17:06:32.694Z,45494.16
2023-03-12T17:08:59.697Z,45498.16
2023-03-12T17:11:29.928Z,45466.19
2023-03-12T17:14:00.100Z,45490.16
2023-03-12T17:16:26.976Z,45482.16
2023-03-12T17:18:54.094Z,45490.16
2023-03-12T17:21:21.299Z,45478.16
2023-03-12T17:23:50.250Z,45490.16
2023-03-12T17:26:18.624Z,45490.16
2023-03-12T17:28:45.362Z,45494.16
2023-03-12T17:31:11.742Z,45494.16
2023-03-12T17:33:38.444Z,45514.13
2023-03-12T17:36:08.067Z,45478.16
2023-03-12T17:38:35.077Z,45502.16
2023-03-12T17:41:04.700Z,45510.16
2023-03-12T17:43:32.339Z,45474.16
2023-03-12T17:46:04.326Z,45488.16
2023-03-12T17:48:30.725Z,45478.16
2023-03-12T17:50:58.172Z,45482.16
2023-03-12T17:53:24.909Z,45526.13
2023-03-12T17:55:51.275Z,45502.16
2023-03-12T17:58:17.646Z,45498.16
2023-03-12T18:00:44.172Z,45478.16
2023-03-12T18:03:10.629Z,45500.16
2023-03-12T18:05:42.821Z,45494.16
2023-03-12T18:08:09.865Z,45512.16
2023-03-12T18:10:40.449Z,45494.16
2023-03-12T18:13:06.877Z,45498.16
2023-03-12T18:15:33.343Z,45502.16
2023-03-12T18:18:00.919Z,45498.16
2023-03-12T18:20:37.783Z,45502.16
2023-03-12T18:23:04.867Z,45504.16
2023-03-12T18:25:31.234Z,45502.16
2023-03-12T18:27:58.130Z,45474.16
2023-03-12T18:30:24.627Z,45492.16
2023-03-12T18:32:51.067Z,45494.16
2023-03-12T18:35:17.616Z,45490.16
2023-03-12T18:37:44.818Z,45506.16
2023-03-12T18:40:12.417Z,45498.16
2023-03-12T18:42:44.027Z,45504.16
2023-03-12T18:45:11.801Z,45494.16
2023-03-12T18:47:41.955Z,45502.16
2023-03-12T18:50:09.532Z,45502.16
2023-03-12T18:52:36.396Z,45480.16
2023-03-12T18:55:04.303Z,45506.16
2023-03-12T18:57:31.303Z,45498.16
2023-03-12T18:59:57.895Z,45498.16
2023-03-12T19:02:24.304Z,45462.19
2023-03-12T19:04:51.217Z,45490.16
2023-03-12T19:07:19.541Z,45502.16
2023-03-12T19:09:46.602Z,45506.16
2023-03-12T19:12:13.040Z,45512.16
2023-03-12T19:14:39.551Z,45484.16
2023-03-12T19:17:05.953Z,45506.16
2023-03-12T19:19:32.391Z,45496.16
2023-03-12T19:21:59.068Z,45514.13
2023-03-12T19:24:25.968Z,45510.16
2023-03-12T19:26:52.442Z,45480.16
2023-03-12T19:29:19.191Z,45486.16
2023-03-12T19:31:45.703Z,45474.16
2023-03-12T19:34:12.239Z,45482.16
2023-03-12T19:36:39.023Z,45516.13
2023-03-12T19:39:15.316Z,45502.16
2023-03-12T19:41:46.739Z,45510.16
2023-03-12T19:44:13.135Z,45482.16
2023-03-12T19:46:41.686Z,45486.16
2023-03-12T19:49:08.127Z,45510.16
2023-03-12T19:51:35.342Z,45500.16
2023-03-12T19:54:01.937Z,45494.16
2023-03-12T19:56:28.973Z,45492.16
2023-03-12T19:58:55.378Z,45498.16
2023-03-12T20:01:21.746Z,45510.16
2023-03-12T20:03:48.186Z,45490.16
2023-03-12T20:06:14.837Z,45506.16
2023-03-12T20:08:41.228Z,45502.16
2023-03-12T20:11:10.071Z,45490.16
2023-03-12T20:13:40.052Z,45496.16
2023-03-12T20:16:07.609Z,45490.16
2023-03-12T20:18:34.499Z,45492.16
2023-03-12T20:21:00.917Z,45490.16
2023-03-12T20:23:27.300Z,45498.16
2023-03-12T20:25:53.706Z,45502.16
2023-03-12T20:28:20.082Z,45478.16
2023-03-12T20:30:46.969Z,45500.16
2023-03-12T20:33:13.668Z,45488.16
2023-03-12T20:35:40.085Z,45516.13
2023-03-12T20:38:07.040Z,45498.16
2023-03-12T20:40:33.753Z,45506.16
2023-03-12T20:43:04.540Z,45502.16
2023-03-12T20:45:32.598Z,45506.16
2023-03-12T20:47:59.104Z,45490.16
2023-03-12T20:50:26.983Z,45506.16
2023-03-12T20:52:53.477Z,45522.13
2023-03-12T20:55:19.942Z,45506.16
2023-03-12T20:57:46.349Z,45508.16
2023-03-12T21:00:12.950Z,45492.16
2023-03-12T21:02:39.438Z,45506.16
2023-03-12T21:05:06.000Z,45506.16
2023-03-12T21:07:32.452Z,45512.16
2023-03-12T21:09:58.830Z,45502.16
2023-03-12T21:12:25.256Z,45506.16
2023-03-12T21:14:51.679Z,45506.16
2023-03-12T21:17:18.030Z,45498.16
2023-03-12T21:19:44.625Z,45494.16
2023-03-12T21:22:11.018Z,45506.16
2023-03-12T21:24:37.494Z,45494.16
2023-03-12T21:27:04.105Z,45522.13
2023-03-12T21:29:30.478Z,45510.16
2023-03-12T21:31:57.348Z,45512.16
2023-03-12T21:34:23.935Z,45498.16
2023-03-12T21:36:50.313Z,45512.16
2023-03-12T21:39:17.496Z,45516.13
2023-03-12T21:41:43.847Z,45512.16
2023-03-12T21:44:10.245Z,45514.13
2023-03-12T21:46:36.786Z,45490.16
2023-03-12T21:49:04.062Z,45506.16
2023-03-12T21:51:30.639Z,45506.16
2023-03-12T21:53:58.352Z,45506.16
2023-03-12T21:56:29.175Z,45494.16
2023-03-12T21:58:57.138Z,45514.13
2023-03-12T22:01:24.108Z,45522.13
2023-03-12T22:03:50.978Z,45526.13
2023-03-12T22:06:17.375Z,45526.13
2023-03-12T22:08:44.075Z,45510.16
2023-03-12T22:11:11.009Z,45506.16
2023-03-12T22:13:37.801Z,45506.16
2023-03-12T22:16:07.894Z,45506.16
2023-03-12T22:18:41.284Z,45496.16
2023-03-12T22:21:08.824Z,45506.16
2023-03-12T22:23:36.298Z,45508.16
2023-03-12T22:26:05.134Z,45506.16
2023-03-12T22:28:32.306Z,45514.13
2023-03-12T22:31:06.971Z,45502.16
2023-03-12T22:33:37.815Z,45506.16
2023-03-12T22:36:06.977Z,45502.16
2023-03-12T22:38:33.443Z,45506.16
2023-03-12T22:41:13.287Z,45514.13
2023-03-12T22:43:39.718Z,45496.16
2023-03-12T22:46:06.219Z,45514.13
2023-03-12T22:48:32.811Z,45494.16
2023-03-12T22:50:59.199Z,45486.16
2023-03-12T22:53:25.601Z,45502.16
2023-03-12T22:56:00.163Z,45510.16
2023-03-12T22:58:27.090Z,45498.16
2023-03-12T23:01:04.056Z,45494.16
2023-03-12T23:03:32.043Z,45502.16
2023-03-12T23:05:59.565Z,45498.16
2023-03-12T23:08:26.843Z,45506.16
2023-03-12T23:11:02.399Z,45490.16
2023-03-12T23:13:30.805Z,45500.16
2023-03-12T23:16:11.178Z,45486.16
2023-03-12T23:18:38.222Z,45500.16
2023-03-12T23:21:07.978Z,45520.13
2023-03-12T23:23:35.704Z,45498.16
2023-03-12T23:26:03.229Z,45490.16
2023-03-12T23:28:32.406Z,45484.16
2023-03-12T23:31:02.010Z,45488.16
2023-03-12T23:33:29.957Z,45506.16
2023-03-12T23:36:08.905Z,45498.16
2023-03-12T23:38:37.610Z,45504.16
2023-03-12T23:41:07.597Z,45508.16
2023-03-12T23:43:34.487Z,45494.16
2023-03-12T23:46:03.780Z,45494.16
2023-03-12T23:48:31.932Z,45492.16
2023-03-12T23:51:14.536Z,45514.13
2023-03-12T23:53:43.438Z,45506.16
2023-03-12T23:56:15.776Z,45498.16
2023-03-12T23:58:43.373Z,45500.16
